Time;durP1;ratioP1;P1;durP2;ratioP2;P2;SDS_P1;SDS_P2;PMS_P1;PMS_P2;Temp;Humidity;BMP_temperature;BMP_pressure;BME280_temperature;BME280_humidity;BME280_pressure;Samples;Min_cycle;Max_cycle;Signal;HPM_P1;HPM_P2
2023/03/26 00:00:12;;;;;;;21.85;2.83;;;7.60;99.90;;;;;;5053048;28;20048;-79
2023/03/26 00:02:39;;;;;;;33.45;4.00;;;7.60;99.90;;;;;;5052768;28;20116;-80
2023/03/26 00:05:06;;;;;;;17.70;3.05;;;7.50;99.90;;;;;;5052837;28;20116;-79
2023/03/26 00:07:32;;;;;;;23.00;3.42;;;7.60;99.90;;;;;;5054215;28;20044;-79
2023/03/26 00:09:57;;;;;;;20.60;3.45;;;7.50;99.90;;;;;;5053060;28;20048;-79
2023/03/26 00:12:27;;;;;;;19.38;2.72;;;7.50;99.90;;;;;;5053854;28;20068;-79
2023/03/26 00:14:54;;;;;;;22.42;3.00;;;7.50;99.90;;;;;;5054068;28;20092;-79
2023/03/26 00:17:20;;;;;;;19.20;2.70;;;7.40;99.90;;;;;;5052835;28;20507;-79
2023/03/26 00:19:46;;;;;;;20.05;2.20;;;7.40;99.90;;;;;;5053484;28;20049;-79
2023/03/26 00:22:12;;;;;;;17.92;2.55;;;7.40;99.90;;;;;;5052484;28;20099;-79
2023/03/26 00:24:39;;;;;;;20.17;2.58;;;7.40;99.90;;;;;;5052593;28;20057;-79
2023/03/26 00:27:05;;;;;;;15.23;2.10;;;7.30;99.90;;;;;;5052768;28;20124;-79
2023/03/26 00:29:32;;;;;;;21.98;2.40;;;7.30;99.90;;;;;;5052813;28;20448;-79
2023/03/26 00:31:58;;;;;;;21.30;3.10;;;7.30;99.90;;;;;;5052612;28;20063;-79
2023/03/26 00:34:25;;;;;;;13.48;2.35;;;7.30;99.90;;;;;;5052631;28;20077;-79
2023/03/26 00:36:53;;;;;;;10.32;1.60;;;7.30;99.90;;;;;;5052472;28;20057;-79
2023/03/26 00:39:22;;;;;;;18.15;2.35;;;7.20;99.90;;;;;;5052366;28;20443;-79
2023/03/26 00:41:53;;;;;;;11.40;2.50;;;7.30;99.90;;;;;;5053589;28;20041;-79
2023/03/26 00:44:18;;;;;;;12.30;1.77;;;7.20;99.90;;;;;;5052243;28;20053;-79
2023/03/26 00:46:44;;;;;;;18.95;2.80;;;7.30;99.90;;;;;;5052755;28;20063;-79
2023/03/26 00:49:09;;;;;;;18.13;3.17;;;7.20;99.90;;;;;;5052241;28;20090;-79
2023/03/26 00:51:36;;;;;;;14.60;2.33;;;7.20;99.90;;;;;;5052167;28;20044;-80
2023/03/26 00:54:01;;;;;;;12.77;1.65;;;7.20;99.90;;;;;;5053449;28;20072;-79
2023/03/26 00:56:27;;;;;;;12.57;2.28;;;7.20;99.90;;;;;;5052110;28;20080;-79
2023/03/26 00:58:53;;;;;;;12.77;2.80;;;7.20;99.90;;;;;;5051826;28;20052;-79
2023/03/26 01:01:26;;;;;;;21.58;2.65;;;7.20;99.90;;;;;;5051993;28;20116;-79
2023/03/26 01:03:57;;;;;;;20.73;2.47;;;7.20;99.90;;;;;;5052010;28;20396;-79
2023/03/26 01:06:27;;;;;;;20.65;3.03;;;7.20;99.90;;;;;;5053512;28;20049;-79
2023/03/26 01:08:59;;;;;;;16.92;2.25;;;7.20;99.90;;;;;;5052009;28;20045;-79
2023/03/26 01:11:31;;;;;;;14.38;2.92;;;7.10;99.90;;;;;;5051878;28;20076;-79
2023/03/26 01:14:01;;;;;;;18.75;5.03;;;7.10;99.90;;;;;;5051666;28;20068;-79
2023/03/26 01:16:38;;;;;;;13.60;2.47;;;7.10;99.90;;;;;;5053191;28;20072;-79
2023/03/26 01:19:44;;;;;;;16.70;2.45;;;7.10;99.90;;;;;;5053150;28;20614;-79
2023/03/26 01:22:16;;;;;;;17.85;2.47;;;7.00;99.90;;;;;;5038944;28;20136;-79
2023/03/26 01:24:44;;;;;;;14.63;1.90;;;7.10;99.90;;;;;;5058568;28;20052;-79
2023/03/26 01:27:19;;;;;;;12.93;2.95;;;7.00;99.90;;;;;;5073455;28;20041;-79
2023/03/26 01:30:06;;;;;;;11.10;2.42;;;7.10;99.90;;;;;;5071656;28;20526;-79
2023/03/26 01:33:03;;;;;;;15.77;2.20;;;7.00;99.90;;;;;;5073235;28;20036;-79
2023/03/26 01:35:40;;;;;;;16.95;2.63;;;7.10;99.90;;;;;;5075296;28;20064;-80
2023/03/26 01:38:45;;;;;;;11.48;2.10;;;7.00;99.90;;;;;;5075622;28;20058;-79
2023/03/26 01:41:22;;;;;;;13.30;1.88;;;7.10;99.90;;;;;;5076158;28;20045;-79
2023/03/26 01:43:57;;;;;;;14.55;2.13;;;7.00;99.90;;;;;;5075898;28;20094;-79
2023/03/26 01:46:24;;;;;;;11.48;2.60;;;7.00;99.90;;;;;;5075617;28;20123;-79
2023/03/26 01:48:50;;;;;;;15.20;2.63;;;7.00;99.90;;;;;;5075342;28;20048;-79
2023/03/26 01:51:29;;;;;;;18.85;2.33;;;7.00;99.90;;;;;;5075325;28;20052;-79
2023/03/26 01:53:57;;;;;;;12.00;2.60;;;7.00;99.90;;;;;;5075229;28;20061;-80
2023/03/26 01:56:35;;;;;;;13.18;3.38;;;7.00;99.90;;;;;;5076753;28;20040;-80
2023/03/26 01:59:31;;;;;;;13.20;3.05;;;7.10;99.90;;;;;;5075355;28;20044;-80
2023/03/26 02:02:13;;;;;;;19.30;2.20;;;7.00;99.90;;;;;;5075198;28;20120;-79
2023/03/26 02:05:14;;;;;;;19.35;2.90;;;7.00;99.90;;;;;;5075516;28;20053;-79
2023/03/26 02:07:49;;;;;;;13.85;2.85;;;7.10;99.90;;;;;;5075218;28;20483;-79
2023/03/26 02:10:37;;;;;;;20.20;2.65;;;7.10;99.90;;;;;;5075260;28;20086;-79
2023/03/26 02:13:05;;;;;;;13.68;3.38;;;7.10;99.90;;;;;;5074605;28;20105;-80
2023/03/26 02:15:31;;;;;;;18.42;2.75;;;7.20;99.90;;;;;;5076280;28;20045;-80
2023/03/26 02:17:58;;;;;;;16.77;2.50;;;7.10;99.90;;;;;;5074756;28;20048;-79
2023/03/26 02:20:28;;;;;;;18.60;2.88;;;7.10;99.90;;;;;;5074728;28;20048;-79
2023/03/26 02:22:54;;;;;;;20.48;2.72;;;7.20;99.90;;;;;;5075008;28;20071;-79
2023/03/26 02:25:21;;;;;;;16.05;3.60;;;7.20;99.90;;;;;;5074711;28;20369;-79
2023/03/26 02:27:48;;;;;;;22.90;4.00;;;7.20;99.90;;;;;;5075974;28;20049;-79
2023/03/26 02:30:18;;;;;;;24.77;4.65;;;7.10;99.90;;;;;;5076043;28;20048;-80
2023/03/26 02:32:44;;;;;;;18.77;3.67;;;7.20;99.90;;;;;;5075728;28;20434;-79
2023/03/26 02:35:10;;;;;;;17.75;4.32;;;7.20;99.90;;;;;;5074510;28;20405;-79
2023/03/26 02:37:37;;;;;;;18.70;2.47;;;7.20;99.90;;;;;;5074424;28;20071;-79
2023/03/26 02:40:04;;;;;;;14.27;2.65;;;7.10;99.90;;;;;;5074512;28;20057;-79
2023/03/26 02:42:30;;;;;;;14.55;2.60;;;7.10;99.90;;;;;;5074872;28;20051;-79
2023/03/26 02:44:56;;;;;;;21.60;2.60;;;7.10;99.90;;;;;;5074498;28;20045;-79
2023/03/26 02:47:21;;;;;;;19.25;2.33;;;7.10;99.90;;;;;;5074252;28;20044;-79
2023/03/26 02:49:47;;;;;;;16.88;2.22;;;7.00;99.90;;;;;;5075547;28;20040;-80
2023/03/26 02:52:15;;;;;;;17.02;2.40;;;7.10;99.90;;;;;;5075515;28;20045;-80
2023/03/26 02:54:41;;;;;;;12.95;2.80;;;7.10;99.90;;;;;;5074357;28;20123;-79
2023/03/26 02:57:07;;;;;;;24.08;3.47;;;7.10;99.90;;;;;;5075554;28;20123;-79
2023/03/26 02:59:32;;;;;;;20.35;2.72;;;7.10;99.90;;;;;;5074196;28;20048;-79
2023/03/26 03:01:58;;;;;;;21.30;3.42;;;7.10;99.90;;;;;;5074051;28;20494;-79
2023/03/26 03:04:23;;;;;;;16.40;2.88;;;7.10;99.90;;;;;;5073954;28;20094;-79
2023/03/26 03:06:56;;;;;;;15.13;3.13;;;7.00;99.90;;;;;;5074328;28;20049;-79
2023/03/26 03:09:22;;;;;;;16.33;2.38;;;7.00;99.90;;;;;;5074306;28;20438;-79
2023/03/26 03:11:48;;;;;;;15.18;2.88;;;7.00;99.90;;;;;;5075208;28;20055;-79
2023/03/26 03:14:13;;;;;;;23.50;3.47;;;7.00;99.90;;;;;;5073745;28;20053;-79
2023/03/26 03:16:39;;;;;;;19.55;2.40;;;7.00;99.90;;;;;;5073813;28;20055;-79
2023/03/26 03:19:05;;;;;;;16.45;2.95;;;7.00;99.90;;;;;;5073717;28;20099;-79
2023/03/26 03:21:31;;;;;;;13.57;2.42;;;7.00;99.90;;;;;;5074078;28;20049;-79
2023/03/26 03:23:57;;;;;;;21.02;4.25;;;7.00;99.90;;;;;;5073931;28;20041;-79
2023/03/26 03:26:28;;;;;;;13.23;2.60;;;7.00;99.90;;;;;;5073957;28;20040;-79
2023/03/26 03:28:56;;;;;;;16.63;2.15;;;7.00;99.90;;;;;;5073740;28;20055;-79
2023/03/26 03:31:23;;;;;;;15.85;2.20;;;7.00;99.90;;;;;;5073516;28;20432;-79
2023/03/26 03:33:49;;;;;;;15.10;3.72;;;6.90;99.90;;;;;;5073747;28;20044;-79
2023/03/26 03:36:17;;;;;;;22.77;3.70;;;6.90;99.90;;;;;;5073650;28;20060;-79
2023/03/26 03:38:43;;;;;;;17.70;3.30;;;6.90;99.90;;;;;;5073338;28;20048;-79
2023/03/26 03:41:09;;;;;;;11.55;2.75;;;6.90;99.90;;;;;;5073379;28;20077;-79
2023/03/26 03:43:35;;;;;;;18.48;3.00;;;6.90;99.90;;;;;;5073150;28;20381;-79
2023/03/26 03:46:01;;;;;;;24.63;3.38;;;6.90;99.90;;;;;;5073132;28;20506;-80
2023/03/26 03:48:27;;;;;;;16.55;2.78;;;6.80;99.90;;;;;;5074188;28;20501;-80
2023/03/26 03:50:54;;;;;;;16.50;4.47;;;6.80;99.90;;;;;;5073032;28;20052;-80
2023/03/26 03:53:25;;;;;;;19.20;2.78;;;6.80;99.90;;;;;;5073368;28;20049;-79
2023/03/26 03:55:54;;;;;;;16.00;3.28;;;6.80;99.90;;;;;;5073346;28;20126;-79
2023/03/26 03:58:26;;;;;;;16.63;2.47;;;6.80;99.90;;;;;;5073713;28;20044;-79
2023/03/26 04:00:59;;;;;;;14.05;3.58;;;6.90;99.90;;;;;;5064246;22;20492;-80
2023/03/26 04:03:29;;;;;;;19.05;3.55;;;6.90;99.90;;;;;;5053034;28;20099;-80
2023/03/26 04:05:55;;;;;;;23.17;3.47;;;6.90;99.90;;;;;;5054193;28;20484;-80
2023/03/26 04:08:22;;;;;;;18.83;3.75;;;6.80;99.90;;;;;;5052835;28;20056;-80
2023/03/26 04:10:48;;;;;;;15.85;3.05;;;6.80;99.90;;;;;;5052960;28;20099;-79
2023/03/26 04:13:15;;;;;;;18.23;2.63;;;6.80;99.90;;;;;;5052787;28;20106;-79
2023/03/26 04:15:42;;;;;;;16.85;3.13;;;6.70;99.90;;;;;;5052995;28;20040;-79
2023/03/26 04:18:11;;;;;;;17.95;2.78;;;6.70;99.90;;;;;;5052605;28;20124;-79
2023/03/26 04:20:40;;;;;;;18.95;4.97;;;6.70;99.90;;;;;;5052649;28;20533;-79
2023/03/26 04:23:07;;;;;;;12.00;1.88;;;6.70;99.90;;;;;;5052778;28;20060;-79
2023/03/26 04:25:35;;;;;;;15.40;2.28;;;6.70;99.90;;;;;;5052783;28;20071;-79
2023/03/26 04:28:05;;;;;;;12.43;2.58;;;6.70;99.90;;;;;;5053911;28;20041;-79
2023/03/26 04:30:33;;;;;;;20.77;4.03;;;6.70;99.90;;;;;;5052418;28;20041;-79
2023/03/26 04:33:02;;;;;;;22.55;2.88;;;6.70;99.90;;;;;;5052755;28;20094;-79
2023/03/26 04:35:33;;;;;;;22.95;5.32;;;6.60;99.90;;;;;;5052603;28;20063;-79
2023/03/26 04:38:00;;;;;;;19.00;2.78;;;6.70;99.90;;;;;;5052494;28;20048;-79
2023/03/26 04:40:29;;;;;;;16.77;2.72;;;6.70;99.90;;;;;;5052478;28;20056;-79
2023/03/26 04:42:57;;;;;;;15.18;2.50;;;6.70;99.90;;;;;;5052326;28;20055;-80
2023/03/26 04:45:23;;;;;;;19.45;3.85;;;6.60;99.90;;;;;;5052302;28;20395;-80
2023/03/26 04:47:49;;;;;;;16.10;2.38;;;6.60;99.90;;;;;;5052022;28;20116;-79
2023/03/26 04:50:15;;;;;;;18.65;3.47;;;6.60;99.90;;;;;;5052364;28;20370;-80
2023/03/26 04:52:42;;;;;;;16.00;2.22;;;6.60;99.90;;;;;;5052135;28;20103;-79
2023/03/26 04:55:19;;;;;;;18.17;3.38;;;6.50;99.90;;;;;;5053257;28;20506;-79
2023/03/26 04:57:49;;;;;;;21.25;2.33;;;6.50;99.90;;;;;;5053399;28;20073;-79
2023/03/26 05:00:22;;;;;;;14.07;2.95;;;6.50;99.90;;;;;;5051814;28;20056;-79
2023/03/26 05:02:49;;;;;;;;;;;6.50;99.90;;;;;;5052499;28;20045;-79
2023/03/26 05:05:16;;;;;;;19.58;2.90;;;6.50;99.90;;;;;;5051910;28;19966;-79
2023/03/26 05:07:42;;;;;;;20.73;4.07;;;6.50;99.90;;;;;;5053261;28;20052;-79
2023/03/26 05:10:10;;;;;;;18.10;2.92;;;6.50;99.90;;;;;;5054035;28;20045;-79
2023/03/26 05:12:36;;;;;;;14.23;3.05;;;6.50;99.90;;;;;;5056612;28;20068;-79
2023/03/26 05:15:02;;;;;;;26.95;4.20;;;6.50;99.90;;;;;;5057258;28;20053;-79
2023/03/26 05:17:29;;;;;;;16.00;3.00;;;6.50;99.90;;;;;;5055873;28;20045;-79
2023/03/26 05:19:56;;;;;;;14.82;2.63;;;6.40;99.90;;;;;;5055798;28;20052;-79
2023/03/26 05:22:22;;;;;;;16.35;2.97;;;6.40;99.90;;;;;;5057388;28;20075;-79
2023/03/26 05:24:47;;;;;;;17.50;2.90;;;6.40;99.90;;;;;;5054927;28;20214;-79
2023/03/26 05:27:18;;;;;;;15.90;2.40;;;6.40;99.90;;;;;;5055808;28;20052;-79
2023/03/26 05:29:45;;;;;;;17.50;2.92;;;6.40;99.90;;;;;;5055745;28;20049;-80
2023/03/26 05:32:11;;;;;;;16.67;3.05;;;6.40;99.90;;;;;;5055837;28;20076;-79
2023/03/26 05:34:38;;;;;;;14.90;2.60;;;6.40;99.90;;;;;;5056046;28;20480;-79
2023/03/26 05:37:05;;;;;;;14.85;3.25;;;6.40;99.90;;;;;;5056936;28;20056;-80
2023/03/26 05:39:32;;;;;;;7.72;1.70;;;6.30;99.90;;;;;;5055576;28;20052;-80
2023/03/26 05:41:58;;;;;;;17.45;4.35;;;6.30;99.90;;;;;;5055405;28;20048;-79
2023/03/26 05:44:23;;;;;;;17.23;4.10;;;6.20;99.90;;;;;;5055947;28;20065;-79
2023/03/26 05:46:49;;;;;;;19.33;3.30;;;6.30;99.90;;;;;;5055782;28;20060;-79
2023/03/26 05:49:14;;;;;;;17.70;2.65;;;6.20;99.90;;;;;;5055379;28;20058;-79
2023/03/26 05:51:40;;;;;;;15.93;4.15;;;6.20;99.90;;;;;;5056675;28;20043;-79
2023/03/26 05:54:06;;;;;;;25.45;2.97;;;6.20;99.90;;;;;;5055303;28;20065;-79
2023/03/26 05:56:31;;;;;;;16.05;4.22;;;6.20;99.90;;;;;;5055275;28;20049;-79
2023/03/26 05:58:57;;;;;;;13.55;2.55;;;6.20;99.90;;;;;;5055035;28;20131;-80
2023/03/26 06:01:24;;;;;;;14.40;1.92;;;6.20;99.90;;;;;;5055196;28;20111;-79
2023/03/26 06:03:50;;;;;;;20.60;3.35;;;6.20;99.90;;;;;;5056443;28;20049;-79
2023/03/26 06:06:19;;;;;;;20.17;2.30;;;6.20;99.90;;;;;;5055023;28;20053;-79
2023/03/26 06:08:50;;;;;;;10.95;2.45;;;6.10;99.90;;;;;;5055415;28;20122;-79
2023/03/26 06:11:18;;;;;;;23.90;3.78;;;6.10;99.90;;;;;;5055413;28;20045;-79
2023/03/26 06:13:44;;;;;;;13.93;1.88;;;6.10;99.90;;;;;;5056328;28;20055;-79
2023/03/26 06:16:12;;;;;;;9.40;2.10;;;6.20;99.90;;;;;;5055029;28;20045;-79
2023/03/26 06:18:39;;;;;;;14.95;3.13;;;6.20;99.90;;;;;;5056071;28;20083;-79
2023/03/26 06:21:05;;;;;;;19.13;2.88;;;6.20;99.90;;;;;;5054653;28;20044;-79
2023/03/26 06:23:32;;;;;;;11.40;2.20;;;6.30;99.90;;;;;;5055848;28;20060;-79
2023/03/26 06:25:58;;;;;;;12.70;2.72;;;6.30;99.90;;;;;;5054667;28;20106;-79
2023/03/26 06:28:24;;;;;;;13.25;2.10;;;6.40;99.90;;;;;;5055937;28;20052;-80
2023/03/26 06:30:50;;;;;;;11.75;2.10;;;6.40;99.90;;;;;;5054668;28;20037;-80
2023/03/26 06:33:16;;;;;;;13.52;2.10;;;6.50;99.90;;;;;;5054881;28;20136;-80
2023/03/26 06:35:44;;;;;;;11.68;2.47;;;6.60;99.90;;;;;;5054856;28;20036;-80
2023/03/26 06:38:10;;;;;;;17.33;3.25;;;6.60;99.90;;;;;;5054574;28;20047;-80
2023/03/26 06:40:35;;;;;;;15.65;2.70;;;6.70;99.90;;;;;;5054378;28;20048;-79
2023/03/26 06:43:01;;;;;;;13.52;2.60;;;6.80;99.90;;;;;;5055780;28;20037;-79
2023/03/26 06:45:28;;;;;;;10.30;2.00;;;6.90;99.90;;;;;;5054300;28;20048;-79
2023/03/26 06:47:54;;;;;;;12.75;2.63;;;7.00;99.90;;;;;;5054483;28;20053;-79
2023/03/26 06:50:19;;;;;;;11.93;2.30;;;7.10;99.90;;;;;;5054388;28;20094;-79
2023/03/26 06:52:45;;;;;;;13.00;3.03;;;7.20;99.90;;;;;;5054332;28;20114;-80
2023/03/26 06:55:13;;;;;;;17.83;2.30;;;7.30;99.90;;;;;;5055623;28;20051;-80
2023/03/26 06:57:38;;;;;;;13.82;2.20;;;7.40;99.90;;;;;;5055410;28;20045;-83
2023/03/26 07:00:07;;;;;;;19.52;2.85;;;7.50;99.90;;;;;;5053870;28;20057;-81
2023/03/26 07:02:34;;;;;;;16.52;2.90;;;7.60;99.90;;;;;;5053838;28;20092;-80
2023/03/26 07:05:00;;;;;;;13.00;2.63;;;7.60;99.90;;;;;;5053500;28;20057;-82
2023/03/26 07:07:25;;;;;;;19.45;2.95;;;7.70;99.90;;;;;;5064632;28;20060;-82
2023/03/26 07:09:51;;;;;;;16.67;2.42;;;7.70;99.90;;;;;;5074078;28;20128;-80
2023/03/26 07:12:17;;;;;;;19.23;2.33;;;7.80;99.90;;;;;;5073914;28;20048;-80
2023/03/26 07:14:42;;;;;;;23.30;2.67;;;7.90;99.90;;;;;;5073956;28;20052;-78
2023/03/26 07:17:08;;;;;;;11.48;2.17;;;8.00;99.90;;;;;;5073525;28;20052;-80
2023/03/26 07:19:34;;;;;;;15.60;2.60;;;8.00;99.90;;;;;;5073292;28;20154;-80
2023/03/26 07:22:00;;;;;;;14.60;2.85;;;8.10;99.90;;;;;;5073570;28;20537;-80
2023/03/26 07:24:26;;;;;;;14.80;2.50;;;8.10;99.90;;;;;;5073522;28;20055;-80
2023/03/26 07:26:59;;;;;;;16.30;2.28;;;8.10;99.90;;;;;;5073389;28;20448;-79
2023/03/26 07:29:31;;;;;;;;;;;8.10;99.90;;;;;;5073668;28;20476;-83
2023/03/26 07:32:12;;;;;;;19.88;2.63;;;7.80;99.90;;;;;;5072484;28;19976;-80
2023/03/26 07:34:50;;;;;;;16.77;3.05;;;7.80;99.90;;;;;;5074476;28;20063;-80
2023/03/26 07:37:24;;;;;;;20.33;3.47;;;7.80;99.90;;;;;;5073135;28;20044;-79
2023/03/26 07:40:03;;;;;;;11.95;2.55;;;7.90;99.90;;;;;;5073063;28;20049;-79
2023/03/26 07:43:16;;;;;;;13.13;2.40;;;7.90;99.90;;;;;;5072969;28;20041;-79
2023/03/26 07:45:43;;;;;;;10.27;2.28;;;7.80;99.90;;;;;;5015585;28;20047;-79
2023/03/26 07:48:20;;;;;;;16.52;2.13;;;7.60;99.90;;;;;;5015805;28;20485;-79
2023/03/26 07:50:47;;;;;;;15.52;2.38;;;7.70;99.90;;;;;;5045867;28;20381;-83
2023/03/26 07:53:13;;;;;;;11.38;2.17;;;7.80;99.90;;;;;;5072556;28;20442;-82
2023/03/26 07:56:17;;;;;;;15.13;1.80;;;7.80;99.90;;;;;;5072982;28;20049;-81
2023/03/26 07:59:07;;;;;;;12.43;1.45;;;7.90;99.90;;;;;;5072593;28;20101;-82
2023/03/26 08:01:47;;;;;;;14.38;1.92;;;7.70;99.90;;;;;;5072619;28;20052;-83
2023/03/26 08:04:31;;;;;;;20.55;2.95;;;7.70;99.90;;;;;;5072405;28;20045;-82
2023/03/26 08:07:09;;;;;;;11.43;1.80;;;7.80;99.90;;;;;;5072675;28;20048;-79
2023/03/26 08:09:56;;;;;;;16.15;2.42;;;7.90;99.90;;;;;;5072502;28;20052;-80
2023/03/26 08:12:40;;;;;;;14.82;3.45;;;7.90;99.90;;;;;;5072356;28;20402;-80
2023/03/26 08:15:12;;;;;;;13.43;2.72;;;7.90;99.90;;;;;;5072584;28;20067;-80
2023/03/26 08:17:52;;;;;;;17.23;1.85;;;7.80;99.90;;;;;;5072200;28;20089;-79
2023/03/26 08:20:52;;;;;;;11.32;1.77;;;7.80;99.90;;;;;;5072455;28;20048;-80
2023/03/26 08:23:49;;;;;;;12.77;2.00;;;7.90;99.90;;;;;;5072170;28;20125;-82
2023/03/26 08:26:35;;;;;;;13.43;3.45;;;7.90;99.90;;;;;;5061945;28;20051;-83
2023/03/26 08:29:16;;;;;;;11.68;1.70;;;7.90;99.90;;;;;;5052055;28;20045;-82
2023/03/26 08:32:00;;;;;;;13.88;1.92;;;7.90;99.90;;;;;;5052161;28;20041;-82
2023/03/26 08:34:26;;;;;;;15.60;2.15;;;8.00;99.90;;;;;;5052135;28;20041;-81
2023/03/26 08:36:52;;;;;;;17.13;4.35;;;8.10;99.90;;;;;;5051697;28;20074;-82
2023/03/26 08:39:26;;;;;;;13.27;1.65;;;8.20;99.90;;;;;;5049784;28;20045;-84
2023/03/26 08:42:17;;;;;;;12.70;2.33;;;8.20;99.90;;;;;;5058878;28;20037;-83
2023/03/26 08:44:46;;;;;;;14.23;1.75;;;8.10;99.90;;;;;;5060076;28;20094;-82
2023/03/26 08:47:30;;;;;;;16.13;2.10;;;8.30;99.90;;;;;;5060599;28;20036;-83
2023/03/26 08:50:27;;;;;;;10.40;2.22;;;8.20;99.90;;;;;;5058050;28;20124;-83
2023/03/26 08:53:08;;;;;;;21.13;3.47;;;8.30;99.90;;;;;;5062261;28;20041;-83
2023/03/26 08:55:40;;;;;;;15.13;2.38;;;8.00;99.90;;;;;;5062342;28;20051;-82
2023/03/26 08:58:33;;;;;;;13.02;1.63;;;7.80;99.90;;;;;;5062184;28;20037;-82
2023/03/26 09:01:23;;;;;;;;;;;7.90;99.90;;;;;;5059286;28;20500;-82
2023/03/26 09:03:49;;;;;;;11.10;1.75;;;8.00;99.90;;;;;;5061683;28;19928;-83
2023/03/26 09:06:38;;;;;;;13.82;2.42;;;8.00;99.90;;;;;;5057686;28;20041;-83
2023/03/26 09:09:31;;;;;;;13.73;2.00;;;8.00;99.90;;;;;;5060348;28;20090;-82
2023/03/26 09:11:57;;;;;;;;;;;8.30;99.90;;;;;;5058997;28;20049;-83
2023/03/26 09:14:44;;;;;;;10.88;1.85;;;8.40;99.90;;;;;;5061432;28;19921;-81
2023/03/26 09:17:48;;;;;;;12.40;2.75;;;8.50;99.90;;;;;;5062075;28;20510;-84
2023/03/26 09:20:47;;;;;;;7.30;1.70;;;8.60;99.90;;;;;;5062403;28;20043;-81
2023/03/26 09:23:30;;;;;;;15.18;2.78;;;8.30;99.90;;;;;;5062475;28;20119;-81
2023/03/26 09:26:22;;;;;;;11.43;2.42;;;8.30;99.90;;;;;;5058033;28;20547;-81
2023/03/26 09:29:12;;;;;;;13.15;2.20;;;8.40;99.90;;;;;;5061257;28;20049;-82
2023/03/26 09:32:05;;;;;;;14.13;2.00;;;8.30;99.90;;;;;;5058764;28;20040;-82
2023/03/26 09:34:52;;;;;;;13.45;2.08;;;8.20;99.90;;;;;;5063206;28;20042;-82
2023/03/26 09:37:33;;;;;;;8.45;1.38;;;8.30;99.90;;;;;;5058112;28;20044;-81
2023/03/26 09:40:17;;;;;;;5.05;1.50;;;8.50;99.90;;;;;;5058439;28;20073;-82
2023/03/26 09:43:32;;;;;;;12.02;1.67;;;8.80;99.90;;;;;;5059595;28;20473;-82
2023/03/26 09:46:24;;;;;;;16.60;2.33;;;8.80;99.90;;;;;;5045030;28;20049;-83
2023/03/26 09:49:09;;;;;;;14.15;1.90;;;8.90;99.90;;;;;;5061437;28;20048;-82
2023/03/26 09:52:29;;;;;;;8.02;2.33;;;8.90;99.90;;;;;;5063185;28;20097;-82
2023/03/26 09:55:13;;;;;;;12.45;2.03;;;8.70;99.90;;;;;;4964618;28;20043;-80
2023/03/26 09:58:16;;;;;;;10.43;2.40;;;9.00;99.90;;;;;;4965052;28;20154;-82
2023/03/26 10:00:59;;;;;;;8.65;1.38;;;8.90;99.90;;;;;;5051619;28;20064;-79
2023/03/26 10:03:45;;;;;;;;;;;8.70;99.90;;;;;;5063156;28;20063;-82
2023/03/26 10:06:40;;;;;;;7.82;1.65;;;8.70;99.90;;;;;;5052993;28;19921;-79
2023/03/26 10:09:24;;;;;;;10.57;1.52;;;8.90;99.90;;;;;;5054934;28;20541;-79
2023/03/26 10:12:03;;;;;;;13.35;2.83;;;9.00;99.90;;;;;;5054925;28;20445;-79
2023/03/26 10:15:07;;;;;;;11.23;2.03;;;9.10;99.90;;;;;;5055002;28;20116;-79
2023/03/26 10:17:57;;;;;;;10.23;1.90;;;9.30;99.90;;;;;;5054802;28;20056;-79
2023/03/26 10:20:43;;;;;;;12.73;1.70;;;9.30;99.90;;;;;;5055047;28;20345;-79
2023/03/26 10:23:11;;;;;;;9.02;1.55;;;9.00;99.90;;;;;;5055862;28;20080;-79
2023/03/26 10:25:57;;;;;;;16.75;2.13;;;8.70;99.90;;;;;;5054930;28;20121;-77
2023/03/26 10:29:06;;;;;;;13.95;2.03;;;8.90;99.90;;;;;;5054315;28;20057;-79
2023/03/26 10:31:35;;;;;;;9.32;1.60;;;9.10;99.90;;;;;;5054577;28;20119;-79
2023/03/26 10:34:27;;;;;;;16.20;2.60;;;9.30;99.90;;;;;;5054398;28;20044;-78
2023/03/26 10:37:26;;;;;;;18.70;2.22;;;9.20;99.90;;;;;;5054778;28;20048;-79
2023/03/26 10:40:04;;;;;;;9.75;2.28;;;9.40;99.90;;;;;;5054147;28;20190;-78
2023/03/26 10:42:36;;;;;;;12.27;2.08;;;9.40;99.90;;;;;;5054553;28;20044;-78
2023/03/26 10:45:02;;;;;;;10.55;1.20;;;9.30;99.90;;;;;;5054516;28;20045;-78
2023/03/26 10:47:58;;;;;;;12.20;1.35;;;9.30;99.90;;;;;;5054243;28;20518;-79
2023/03/26 10:50:38;;;;;;;13.98;2.65;;;9.30;99.90;;;;;;5054054;28;20056;-79
2023/03/26 10:53:29;;;;;;;13.90;1.95;;;9.40;99.90;;;;;;5054268;28;20090;-80
2023/03/26 10:56:05;;;;;;;12.07;2.08;;;9.40;99.90;;;;;;5054328;28;20155;-79
2023/03/26 10:58:33;;;;;;;11.77;1.50;;;9.50;99.90;;;;;;5053980;28;20041;-79
2023/03/26 11:01:02;;;;;;;7.53;1.48;;;9.30;99.90;;;;;;5053842;28;20065;-78
2023/03/26 11:03:53;;;;;;;8.95;1.35;;;9.40;99.90;;;;;;5052331;28;20052;-79
2023/03/26 11:06:40;;;;;;;16.40;3.05;;;9.40;99.90;;;;;;5061027;28;20541;-80
2023/03/26 11:09:30;;;;;;;13.00;1.25;;;9.30;99.90;;;;;;5059596;28;20041;-79
2023/03/26 11:12:24;;;;;;;7.88;1.80;;;9.50;99.90;;;;;;5059468;28;20087;-79
2023/03/26 11:15:11;;;;;;;9.00;1.80;;;9.50;99.90;;;;;;5061144;28;20037;-79
2023/03/26 11:17:58;;;;;;;9.25;1.50;;;9.30;99.90;;;;;;5055804;23;20107;-79
2023/03/26 11:20:32;;;;;;;12.00;1.65;;;9.30;99.90;;;;;;5048786;28;20048;-79
2023/03/26 11:23:19;;;;;;;8.75;1.67;;;9.40;99.90;;;;;;5045687;28;20052;-79
2023/03/26 11:26:09;;;;;;;12.18;1.33;;;9.50;99.90;;;;;;5063438;28;20048;-79
2023/03/26 11:28:57;;;;;;;8.38;1.80;;;9.60;99.90;;;;;;5069068;28;20163;-79
2023/03/26 11:32:01;;;;;;;10.30;1.63;;;9.70;99.90;;;;;;5025085;28;20045;-79
2023/03/26 11:34:37;;;;;;;11.18;1.98;;;9.70;99.90;;;;;;5041044;28;20053;-79
2023/03/26 11:37:11;;;;;;;10.07;1.67;;;9.50;99.90;;;;;;5041935;28;20042;-79
2023/03/26 11:39:53;;;;;;;13.68;1.80;;;8.90;99.90;;;;;;5042876;28;20508;-79
2023/03/26 11:42:22;;;;;;;9.63;1.55;;;9.30;99.90;;;;;;5041733;28;20406;-79
2023/03/26 11:44:59;;;;;;;13.70;1.98;;;9.40;99.90;;;;;;5042894;28;20052;-79
2023/03/26 11:47:34;;;;;;;9.73;1.40;;;9.40;99.90;;;;;;5045141;28;20037;-79
2023/03/26 11:50:02;;;;;;;6.53;1.27;;;9.40;99.90;;;;;;5041566;28;20095;-79
2023/03/26 11:52:28;;;;;;;9.77;2.10;;;9.60;99.90;;;;;;5042866;28;20045;-79
2023/03/26 11:54:58;;;;;;;9.02;1.45;;;9.40;99.90;;;;;;5043371;28;20388;-80
2023/03/26 11:57:32;;;;;;;11.35;2.25;;;9.40;99.90;;;;;;5052885;28;20056;-86
2023/03/26 12:00:06;;;;;;;10.18;1.38;;;9.40;99.90;;;;;;5052906;28;20063;-86
2023/03/26 12:02:40;;;;;;;10.48;2.00;;;9.30;99.90;;;;;;5054073;28;20049;-87
2023/03/26 12:05:21;;;;;;;11.07;1.40;;;9.40;99.90;;;;;;5052890;28;20045;-86
2023/03/26 12:07:58;;;;;;;9.38;1.88;;;9.10;99.90;;;;;;5054242;28;20055;-87
2023/03/26 12:10:33;;;;;;;9.55;1.33;;;9.10;99.90;;;;;;5052749;28;20045;-79
2023/03/26 12:13:01;;;;;;;7.10;1.38;;;9.20;99.90;;;;;;5053747;28;20377;-79
2023/03/26 12:15:29;;;;;;;8.95;1.48;;;9.10;99.90;;;;;;5052867;28;20053;-82
2023/03/26 12:17:57;;;;;;;9.27;1.38;;;9.00;99.90;;;;;;5053300;28;20044;-83
2023/03/26 12:20:26;;;;;;;5.13;0.90;;;9.20;99.90;;;;;;5054003;28;20055;-81
2023/03/26 12:22:58;;;;;;;6.85;1.40;;;9.40;99.90;;;;;;5053798;28;20076;-80
2023/03/26 12:25:37;;;;;;;12.83;1.43;;;9.40;99.90;;;;;;5054034;28;20041;-83
2023/03/26 12:28:16;;;;;;;11.07;1.60;;;9.50;99.90;;;;;;5052278;28;20045;-79
2023/03/26 12:30:57;;;;;;;6.78;1.08;;;9.20;99.90;;;;;;5052285;28;20438;-79
2023/03/26 12:33:26;;;;;;;5.55;1.88;;;9.50;99.90;;;;;;5052499;28;20095;-83
2023/03/26 12:35:53;;;;;;;9.30;1.45;;;9.50;99.90;;;;;;5053450;28;20116;-79
2023/03/26 12:38:33;;;;;;;8.93;1.25;;;9.30;99.90;;;;;;5052083;28;20072;-78
2023/03/26 12:41:13;;;;;;;6.85;1.00;;;8.90;99.90;;;;;;5052497;28;20049;-82
2023/03/26 12:44:13;;;;;;;7.38;1.52;;;9.20;99.90;;;;;;5052437;28;20488;-84
2023/03/26 12:46:39;;;;;;;13.65;1.50;;;9.00;99.90;;;;;;5053719;28;20091;-78
2023/03/26 12:49:07;;;;;;;8.48;1.40;;;8.90;99.90;;;;;;5052241;28;20048;-82
2023/03/26 12:51:57;;;;;;;8.15;1.02;;;8.80;99.90;;;;;;5052199;28;20041;-83
2023/03/26 12:54:44;;;;;;;10.43;1.13;;;8.80;99.90;;;;;;5052099;28;20431;-81
2023/03/26 12:57:39;;;;;;;9.50;1.40;;;8.60;99.90;;;;;;5051945;28;20448;-81
2023/03/26 13:00:56;;;;;;;6.28;1.35;;;8.70;99.90;;;;;;5044445;28;20045;-82
2023/03/26 13:03:40;;;;;;;7.55;1.05;;;8.70;99.90;;;;;;5043666;28;20056;-84
2023/03/26 13:06:30;;;;;;;7.38;1.13;;;9.00;99.90;;;;;;5052163;28;20048;-81
2023/03/26 13:09:24;;;;;;;7.20;1.52;;;9.10;99.90;;;;;;5051746;28;20041;-81
2023/03/26 13:12:39;;;;;;;10.82;1.13;;;9.00;99.90;;;;;;5051808;28;20049;-81
2023/03/26 13:15:16;;;;;;;4.60;0.95;;;9.20;99.90;;;;;;5043567;28;20083;-80
2023/03/26 13:18:20;;;;;;;10.90;1.63;;;9.50;99.90;;;;;;5051719;28;20408;-80
2023/03/26 13:21:18;;;;;;;13.48;2.15;;;9.40;99.90;;;;;;5053039;28;20110;-93
2023/03/26 13:24:13;;;;;;;13.23;1.33;;;9.60;99.90;;;;;;5032628;28;20519;-77
2023/03/26 13:27:02;;;;;;;10.55;2.38;;;9.30;99.90;;;;;;5051892;28;20045;-80
2023/03/26 13:29:35;;;;;;;12.10;1.98;;;9.70;99.90;;;;;;5051824;28;20056;-89